Boston, Massachusetts
Traffic Map
Current Weather Conditions
Boston, Massachusetts
Clear
Clear
77°
Feels Like: 79°
Wind Chill: 77° Ceiling: Unl
Heat Index: 79° Visibility: 10mi
Dew Point: 67° Wind: 13mph
Humidity: 71% Direction: 270° (W)
Pressure: 29.79in Gusts: 18mph
Raw Report DataKBOS 260954Z 27011G16KT 10SM CLR 25/19 A2979 RMK AO2 SLP088 T02500194
Traffic Incident Summary
Active as of:
Severity:
Category:
InformationThere was an issue retrieving the traffic information for this location. Please try a different location or try again shortly.
Advertisements
Track Severe Weather on mobile